Ponto Lake, Minnesota
Current Conditions -  °F | °C
As of 7:34 PM on Wednesday 26 Nov 2014 (Local Time) from KPWC Reporting Station
Clear Clear  
Wind Chill: -11°   Ceiling: Unl
Heat Index:   Visibility: 10mi
Dew Point: -4°   Wind: 9mph
Humidity: 72%   Direction: 340°NNW
Pressure: 30.4"   Gusts: NA
Location:  46.6535°N, 94.5389°W
Report Text: KPWC 270134Z AUTO 34008KT 10SM CLR M16/M20 A3040 RMK AO2
Loading
Personal Weather Stations






























Interactive Weather Map New forecast layout! Learn more

10-Day Weather Forecast

Advertisements
Track Severe Weather on mobile